• Join FlightAware (Why Join?)
  • Login
  • US Flag 
05:16PM EDT


 

Airport Tracker/Info


-or-


 

Live Flight TrackerFlight Track Log ✈ N87CA ✈ 15-May-2013 ✈ KLOU - KRYY

Flight Track Log - Related Links

Times and Time Zones

All times are in EDT time to prevent confusion due to time zone crossing. See the N87CA flight status page for this flight to view local times or setup timezone preferences in your user account.

Time Position Orientation Groundspeed Altitude Reporting Facility
EDT Latitude Longitude Course Direction KTS MPH feet Rate Location/Type
01:08PM 38.2167 -85.6667 131° Southeast 130 150 1,600  Level Louisville TRACON
01:10PM 38.1756 -85.6058 131° Southeast 147 169 3,600 780 Climbing Indianapolis Center
01:11PM 38.1358 -85.5803 153° Southeast 159 183 3,900 120 Climbing Indianapolis Center
01:12PM 38.0864 -85.5594 162° South 168 193 3,900  Level Indianapolis Center
01:13PM 38.0375 -85.5414 164° South 174 200 3,900 360 Level Indianapolis Center
01:14PM 37.9800 -85.5281 170° South 175 201 4,700 720 Climbing Indianapolis Center
01:15PM 37.9336 -85.5261 178° South 170 196 5,400 720 Climbing Indianapolis Center
01:16PM 37.8906 -85.5203 174° South 163 188 6,200 720 Climbing Indianapolis Center
01:17PM 37.8461 -85.5150 175° South 159 183 6,900 300 Climbing Indianapolis Center
01:18PM 37.7942 -85.5086 174° South 165 190 6,900  Level Indianapolis Center
01:19PM 37.7450 -85.5022 174° South 176 203 6,900  Level Indianapolis Center
01:20PM 37.6947 -85.4947 173° South 180 207 6,900  Level Indianapolis Center
01:21PM 37.6442 -85.4878 174° South 181 208 6,900  Level Indianapolis Center
01:22PM 37.5936 -85.4817 175° South 181 208 6,900  Level Indianapolis Center
01:23PM 37.5436 -85.4758 175° South 180 207 6,900  Level Indianapolis Center
01:24PM 37.4858 -85.4683 174° South 179 206 6,900 -60 Level Indianapolis Center
01:25PM 37.4369 -85.4619 174° South 177 204 6,800 -60 Descending Indianapolis Center
01:26PM 37.3864 -85.4547 174° South 180 207 6,800  Level Indianapolis Center
01:27PM 37.3353 -85.4481 174° South 183 211 6,800  Level Indianapolis Center
01:28PM 37.2858 -85.4422 175° South 179 206 6,800  Level Indianapolis Center
01:29PM 37.2281 -85.4350 174° South 179 206 6,900  Climbing Indianapolis Center
01:30PM 37.1797 -85.4269 172° South 177 204 6,900  Level Indianapolis Center
01:31PM 37.1292 -85.4219 175° South 180 207 6,900  Level Indianapolis Center
01:32PM 37.0789 -85.4153 174° South 181 208 6,900 -60 Level Indianapolis Center
01:33PM 37.0247 -85.4086 174° South 181 208 6,800 -60 Descending Indianapolis Center
01:34PM 36.9697 -85.4011 174° South 182 209 6,800  Level Indianapolis Center
01:36PM 36.9192 -85.3953 175° South 181 208 6,800  Level Indianapolis Center
01:37PM 36.8692 -85.3889 174° South 181 208 6,800  Level Indianapolis Center
01:38PM 36.8183 -85.3833 175° South 183 211 6,800  Level Indianapolis Center
01:39PM 36.7686 -85.3772 174° South 181 208 6,800  Level Indianapolis Center
01:40PM 36.7192 -85.3708 174° South 178 205 6,900  Climbing Indianapolis Center
01:41PM 36.6686 -85.3639 174° South 180 207 6,900  Level Indianapolis Center
01:42PM 36.6089 -85.3564 174° South 179 206 6,900  Level Indianapolis Center
01:43PM 36.5592 -85.3503 174° South 181 208 6,900  Level Indianapolis Center
01:44PM 36.5089 -85.3444 175° South 181 208 6,900  Level Indianapolis Center
01:45PM 36.4589 -85.3381 174° South 181 208 6,900  Level Indianapolis Center
01:46PM 36.4083 -85.3311 174° South 181 208 6,900  Level Indianapolis Center
01:47PM 36.3644 -85.3278 177° South 181 208 6,900  Level Atlanta Center
01:48PM 36.3144 -85.3219 175° South 181 208 6,900  Level Atlanta Center
01:49PM 36.2625 -85.3133 172° South 181 208 6,900  Level Atlanta Center
01:50PM 36.2103 -85.3075 175° South 181 208 6,900  Level Atlanta Center
01:51PM 36.1603 -85.3042 177° South 181 208 6,900  Level Atlanta Center
01:52PM 36.1103 -85.2956 172° South 181 208 6,900  Level Atlanta Center
01:53PM 36.0583 -85.2869 172° South 181 208 6,900  Level Atlanta Center
01:54PM 36.0083 -85.2836 177° South 181 208 6,900  Level Atlanta Center
01:55PM 35.9561 -85.2753 173° South 181 208 6,900  Level Atlanta Center
01:56PM 35.9042 -85.2692 175° South 181 208 6,900  Level Atlanta Center
01:57PM 35.8542 -85.2633 175° South 181 208 6,900  Level Atlanta Center
01:58PM 35.8019 -85.2550 173° South 181 208 6,900  Level Atlanta Center
01:59PM 35.7478 -85.2489 175° South 181 208 6,900  Level Atlanta Center
02:00PM 35.6958 -85.2431 175° South 181 208 6,900  Level Atlanta Center
02:01PM 35.6436 -85.2372 175° South 186 214 6,900  Level Atlanta Center
02:02PM 35.5914 -85.2314 175° South 186 214 6,900  Level Atlanta Center
02:03PM 35.5394 -85.2256 175° South 186 214 6,900  Level Atlanta Center
02:04PM 35.4894 -85.2197 175° South 186 214 6,900  Level Atlanta Center
02:05PM 35.4353 -85.2114 173° South 186 214 6,900 -60 Level Atlanta Center
02:06PM 35.3853 -85.2056 175° South 186 214 6,800 -240 Descending Atlanta Center
02:07PM 35.3289 -85.1994 175° South 192 221 6,500 -300 Descending Atlanta Center
02:08PM 35.2706 -85.1911 173° South 203 234 6,200 -300 Descending Atlanta Center
02:09PM 35.2164 -85.1853 175° South 203 234 6,000 -60 Descending Atlanta Center
02:11PM 35.1213 -85.1727 174° South  Level FlightAware Approximate
02:16PM 34.8014 -85.1492 178° South 203 234 6,000  Level Atlanta Center
02:17PM 34.7472 -85.1461 177° South 198 228 6,000  Level Atlanta Center
02:18PM 34.7668 -85.1423 178° South  Level FlightAware Approximate
02:18PM 34.6931 -85.1303 166° South 198 228 6,000  Level Atlanta Center
02:19PM 34.7160 -85.1402 178° South  Level FlightAware Approximate
02:19PM 34.6433 -85.1017 155° Southeast 198 228 6,000  Level Atlanta Center
02:20PM 34.6653 -85.1381 178° South  Level FlightAware Approximate
02:20PM 34.5914 -85.0733 156° South 203 234 6,000  Level Atlanta Center
02:21PM 34.6145 -85.1360 178° South  Level FlightAware Approximate
02:21PM 34.5414 -85.0450 155° Southeast 203 234 6,000  Level Atlanta Center
02:22PM 34.4894 -85.0167 156° South 203 234 6,000  Level Atlanta Center
02:23PM 34.4397 -84.9883 155° Southeast 203 234 6,000 -240 Level Atlanta Center
02:24PM 34.3836 -84.9625 159° South 209 241 5,600 -420 Descending Atlanta Center
02:25PM 34.3253 -84.9317 156° South 214 246 5,200 -300 Descending Atlanta Center
02:26PM 34.2714 -84.9036 157° South 219 252 5,000 -180 Descending Atlanta Center
02:27PM 34.2192 -84.8753 156° South 211 243 4,900  Descending Atlanta Center
02:28PM 34.1672 -84.8472 156° South 211 243 5,000  Climbing Atlanta Center
02:29PM 34.1322 -84.7942 129° Southeast 206 237 5,000 -180 Level Atlanta Center
02:30PM 34.1053 -84.7336 118° Southeast 206 237 4,700 -540 Descending Atlanta Center
02:31PM 34.0744 -84.6808 125° Southeast 206 237 4,000 -720 Descending Atlanta Center
02:32PM 34.0622 -84.6206 104° East 188 216 3,300 -780 Descending Atlanta Center
02:33PM 34.0561 -84.5653 98° East 182 209 2,500 -600 Descending Atlanta Center
02:34PM 34.0292 -84.5375 139° Southeast 154 177 2,100 -420 Descending Atlanta Center